createdAt,value
2023-01-15T00:01:01.195Z,9.04
2023-01-15T00:03:31.756Z,9.03
2023-01-15T00:06:04.722Z,9.01
2023-01-15T00:08:31.352Z,9.02
2023-01-15T00:10:57.946Z,9.03
2023-01-15T00:13:24.681Z,9.02
2023-01-15T00:15:51.445Z,9.07
2023-01-15T00:18:18.238Z,8.98
2023-01-15T00:20:44.843Z,8.95
2023-01-15T00:23:31.497Z,9.01
2023-01-15T00:26:18.403Z,8.99
2023-01-15T00:28:48.735Z,9.05
2023-01-15T00:31:16.230Z,9.02
2023-01-15T00:33:42.873Z,9.00
2023-01-15T00:36:09.604Z,8.86
2023-01-15T00:38:36.478Z,8.80
2023-01-15T00:41:03.138Z,8.79
2023-01-15T00:43:29.811Z,8.71
2023-01-15T00:45:56.449Z,8.57
2023-01-15T00:48:23.083Z,8.43
2023-01-15T00:50:49.697Z,8.40
2023-01-15T00:53:16.343Z,8.28
2023-01-15T00:55:43.876Z,8.35
2023-01-15T00:58:10.470Z,8.19
2023-01-15T01:00:37.342Z,8.04
2023-01-15T01:03:04.153Z,7.91
2023-01-15T01:05:32.020Z,7.67
2023-01-15T01:08:00.248Z,7.55
2023-01-15T01:10:28.286Z,7.72
2023-01-15T01:12:56.148Z,7.63
2023-01-15T01:15:23.390Z,7.64
2023-01-15T01:17:50.099Z,7.56
2023-01-15T01:20:18.188Z,7.51
2023-01-15T01:22:49.110Z,7.43
2023-01-15T01:25:15.774Z,7.41
2023-01-15T01:27:45.146Z,7.30
2023-01-15T01:30:13.131Z,7.22
2023-01-15T01:32:41.015Z,7.20
2023-01-15T01:35:07.919Z,7.17
2023-01-15T01:37:34.843Z,7.19
2023-01-15T01:40:01.580Z,7.08
2023-01-15T01:42:28.312Z,7.14
2023-01-15T01:45:00.840Z,6.97
2023-01-15T01:47:31.188Z,6.93
2023-01-15T01:50:02.715Z,6.88
2023-01-15T01:52:36.803Z,6.97
2023-01-15T01:55:05.718Z,6.91
2023-01-15T01:57:32.877Z,6.66
2023-01-15T02:00:03.210Z,6.49
2023-01-15T02:02:42.397Z,6.50
2023-01-15T02:05:10.901Z,6.47
2023-01-15T02:07:38.063Z,6.40
2023-01-15T02:10:05.141Z,6.26
2023-01-15T02:12:36.943Z,6.29
2023-01-15T02:15:12.052Z,6.17
2023-01-15T02:18:04.500Z,6.18
2023-01-15T02:20:35.157Z,5.93
2023-01-15T02:23:24.918Z,5.97
2023-01-15T02:26:33.186Z,5.88
2023-01-15T02:29:00.937Z,5.79
2023-01-15T02:31:34.320Z,5.64
2023-01-15T02:34:07.067Z,5.69
2023-01-15T02:36:40.457Z,5.74
2023-01-15T02:39:13.137Z,5.61
2023-01-15T02:41:47.768Z,5.56
2023-01-15T02:44:18.074Z,5.72
2023-01-15T02:46:46.162Z,5.70
2023-01-15T02:49:17.086Z,5.78
2023-01-15T02:51:58.787Z,5.54
2023-01-15T02:54:30.495Z,5.47
2023-01-15T02:57:00.700Z,5.62
2023-01-15T02:59:40.746Z,5.67
2023-01-15T03:02:12.588Z,5.58
2023-01-15T03:04:49.205Z,5.48
2023-01-15T03:07:36.568Z,5.51
2023-01-15T03:10:05.746Z,5.46
2023-01-15T03:13:03.558Z,5.41
2023-01-15T03:16:22.758Z,5.51
2023-01-15T03:19:25.965Z,5.28
2023-01-15T03:22:04.475Z,5.27
2023-01-15T03:24:59.326Z,5.29
2023-01-15T03:27:28.305Z,5.31
2023-01-15T03:30:05.824Z,5.20
2023-01-15T03:32:33.010Z,5.14
2023-01-15T03:35:00.478Z,5.16
2023-01-15T03:37:28.776Z,5.13
2023-01-15T03:39:57.996Z,5.10
2023-01-15T03:42:40.523Z,5.15
2023-01-15T03:45:15.675Z,4.89
2023-01-15T03:48:01.597Z,4.90
2023-01-15T03:50:46.412Z,5.11
2023-01-15T03:53:31.866Z,4.96
2023-01-15T03:56:08.842Z,4.77
2023-01-15T03:58:48.027Z,4.76
2023-01-15T04:01:21.760Z,4.78
2023-01-15T04:03:50.938Z,4.90
2023-01-15T04:06:22.408Z,4.74
2023-01-15T04:08:49.305Z,4.73
2023-01-15T04:11:26.061Z,4.69
2023-01-15T04:13:57.735Z,4.74
2023-01-15T04:16:35.038Z,4.81
2023-01-15T04:19:02.950Z,4.70
2023-01-15T04:21:31.793Z,4.53
2023-01-15T04:23:58.545Z,4.38
2023-01-15T04:26:25.527Z,4.53
2023-01-15T04:28:52.176Z,4.49
2023-01-15T04:31:19.152Z,4.45
2023-01-15T04:33:45.792Z,4.39
2023-01-15T04:36:14.518Z,4.48
2023-01-15T04:38:41.522Z,4.41
2023-01-15T04:41:26.616Z,4.22
2023-01-15T04:44:08.684Z,4.38
2023-01-15T04:46:41.287Z,4.21
2023-01-15T04:49:12.004Z,4.15
2023-01-15T04:51:39.890Z,4.26
2023-01-15T04:54:09.058Z,4.24
2023-01-15T04:56:41.475Z,4.18
2023-01-15T04:59:09.001Z,4.31
2023-01-15T05:01:35.869Z,4.20
2023-01-15T05:04:02.959Z,4.23
2023-01-15T05:06:31.450Z,4.23
2023-01-15T05:08:59.324Z,4.13
2023-01-15T05:11:26.479Z,4.15
2023-01-15T05:13:53.847Z,4.18
2023-01-15T05:16:26.084Z,4.15
2023-01-15T05:18:55.027Z,4.09
2023-01-15T05:21:24.868Z,4.25
2023-01-15T05:23:53.597Z,4.05
2023-01-15T05:26:21.988Z,4.21
2023-01-15T05:28:49.444Z,4.14
2023-01-15T05:31:17.920Z,4.04
2023-01-15T05:33:46.673Z,4.04
2023-01-15T05:36:16.174Z,4.13
2023-01-15T05:38:43.039Z,4.08
2023-01-15T05:41:34.289Z,4.15
2023-01-15T05:44:03.996Z,4.01
2023-01-15T05:46:31.483Z,4.02
2023-01-15T05:49:02.667Z,4.08
2023-01-15T05:51:29.610Z,4.21
2023-01-15T05:53:59.753Z,4.02
2023-01-15T05:56:26.596Z,4.13
2023-01-15T05:58:54.054Z,4.13
2023-01-15T06:01:21.929Z,4.15
2023-01-15T06:03:49.387Z,4.18
2023-01-15T06:06:18.639Z,4.14
2023-01-15T06:08:45.660Z,4.05
2023-01-15T06:11:13.169Z,4.18
2023-01-15T06:13:40.109Z,4.22
2023-01-15T06:16:07.922Z,4.17
2023-01-15T06:18:35.657Z,4.15
2023-01-15T06:21:07.236Z,3.96
2023-01-15T06:23:36.880Z,3.89
2023-01-15T06:26:10.612Z,3.91
2023-01-15T06:28:37.289Z,3.93
2023-01-15T06:31:09.075Z,3.79
2023-01-15T06:33:35.859Z,3.94
2023-01-15T06:36:05.874Z,3.89
2023-01-15T06:38:32.837Z,3.86
2023-01-15T06:41:04.206Z,3.81
2023-01-15T06:43:49.632Z,4.01
2023-01-15T06:46:35.975Z,3.91
2023-01-15T06:49:02.993Z,3.86
2023-01-15T06:51:31.276Z,4.03
2023-01-15T06:53:58.010Z,3.94
2023-01-15T06:56:24.714Z,3.84
2023-01-15T06:58:51.532Z,3.83
2023-01-15T07:01:18.316Z,3.84
2023-01-15T07:03:45.124Z,4.02
2023-01-15T07:06:13.570Z,4.04
2023-01-15T07:08:40.815Z,3.99
2023-01-15T07:11:09.777Z,3.84
2023-01-15T07:13:37.710Z,3.82
2023-01-15T07:16:04.981Z,3.89
2023-01-15T07:18:33.407Z,3.88
2023-01-15T07:21:00.958Z,3.77
2023-01-15T07:23:28.286Z,3.83
2023-01-15T07:25:55.749Z,3.91
2023-01-15T07:28:24.468Z,3.89
2023-01-15T07:30:51.542Z,3.89
2023-01-15T07:33:18.221Z,3.92
2023-01-15T07:35:44.884Z,3.93
2023-01-15T07:38:11.752Z,3.97
2023-01-15T07:40:39.118Z,4.04
2023-01-15T07:43:24.502Z,4.13
2023-01-15T07:46:09.994Z,4.07
2023-01-15T07:48:55.419Z,4.09
2023-01-15T07:51:22.147Z,4.15
2023-01-15T07:53:48.774Z,4.15
2023-01-15T07:56:15.662Z,4.21
2023-01-15T07:58:42.336Z,4.23
2023-01-15T08:01:09.067Z,4.27
2023-01-15T08:03:35.803Z,4.27
2023-01-15T08:06:02.435Z,4.29
2023-01-15T08:08:29.249Z,4.22
2023-01-15T08:11:14.473Z,4.24
2023-01-15T08:14:00.029Z,4.27
2023-01-15T08:16:26.743Z,4.30
2023-01-15T08:18:53.358Z,4.38
2023-01-15T08:21:21.600Z,4.33
2023-01-15T08:23:49.769Z,4.36
2023-01-15T08:26:16.512Z,4.38
2023-01-15T08:28:43.230Z,4.34
2023-01-15T08:31:09.881Z,4.42
2023-01-15T08:33:36.654Z,4.44
2023-01-15T08:36:03.472Z,4.44
2023-01-15T08:38:30.185Z,4.42
2023-01-15T08:40:59.730Z,4.50
2023-01-15T08:43:27.503Z,4.44
2023-01-15T08:46:00.592Z,4.45
2023-01-15T08:48:29.173Z,4.45
2023-01-15T08:50:56.175Z,4.44
2023-01-15T08:53:24.559Z,4.48
2023-01-15T08:55:51.505Z,4.51
2023-01-15T08:58:18.557Z,4.52
2023-01-15T09:00:45.282Z,4.45
2023-01-15T09:03:11.974Z,4.44
2023-01-15T09:05:38.794Z,4.44
2023-01-15T09:08:08.402Z,4.43
2023-01-15T09:10:35.233Z,4.46
2023-01-15T09:13:03.389Z,4.43
2023-01-15T09:15:31.704Z,4.39
2023-01-15T09:17:59.001Z,4.36
2023-01-15T09:20:26.070Z,4.48
2023-01-15T09:22:53.163Z,4.47
2023-01-15T09:25:20.368Z,4.42
2023-01-15T09:27:49.135Z,4.44
2023-01-15T09:30:21.073Z,4.45
2023-01-15T09:32:48.984Z,4.49
2023-01-15T09:35:16.186Z,4.51
2023-01-15T09:37:42.896Z,4.52
2023-01-15T09:40:37.970Z,4.52
2023-01-15T09:43:24.206Z,4.53
2023-01-15T09:45:53.967Z,4.52
2023-01-15T09:48:45.816Z,4.56
2023-01-15T09:51:41.512Z,4.54
2023-01-15T09:54:29.319Z,4.53
2023-01-15T09:56:56.737Z,4.46
2023-01-15T09:59:35.053Z,4.53
2023-01-15T10:02:12.339Z,4.49
2023-01-15T10:04:45.689Z,4.47
2023-01-15T10:07:33.394Z,4.48
2023-01-15T10:10:05.793Z,4.44
2023-01-15T10:12:35.862Z,4.40
2023-01-15T10:15:22.467Z,4.45
2023-01-15T10:17:53.656Z,4.44
2023-01-15T10:20:51.386Z,4.46
2023-01-15T10:23:34.951Z,4.55
2023-01-15T10:26:22.925Z,4.59
2023-01-15T10:29:06.290Z,4.52
2023-01-15T10:31:52.908Z,4.60
2023-01-15T10:34:47.962Z,4.61
2023-01-15T10:37:20.760Z,4.58
2023-01-15T10:40:05.682Z,4.64
2023-01-15T10:43:04.862Z,4.68
2023-01-15T10:45:36.793Z,4.90
2023-01-15T10:48:21.748Z,5.02
2023-01-15T10:50:49.832Z,5.15
2023-01-15T10:53:45.393Z,5.17
2023-01-15T10:56:49.780Z,5.18
2023-01-15T10:59:36.968Z,5.18
2023-01-15T11:02:13.671Z,5.17
2023-01-15T11:04:40.564Z,5.14
2023-01-15T11:07:11.287Z,5.23
2023-01-15T11:09:38.868Z,5.21
2023-01-15T11:12:08.637Z,5.16
2023-01-15T11:15:02.035Z,5.21
2023-01-15T11:17:54.968Z,5.26
2023-01-15T11:20:21.785Z,5.22
2023-01-15T11:22:48.781Z,5.19
2023-01-15T11:25:26.361Z,5.18
2023-01-15T11:27:53.362Z,5.27
2023-01-15T11:30:37.639Z,5.38
2023-01-15T11:33:20.344Z,5.39
2023-01-15T11:35:52.512Z,5.35
2023-01-15T11:38:23.660Z,5.50
2023-01-15T11:41:19.660Z,5.56
2023-01-15T11:44:13.408Z,5.65
2023-01-15T11:46:58.896Z,5.79
2023-01-15T11:49:44.247Z,5.70
2023-01-15T11:52:20.797Z,5.72
2023-01-15T11:54:51.619Z,5.97
2023-01-15T11:57:39.102Z,5.95
2023-01-15T12:00:07.835Z,5.97
2023-01-15T12:02:50.859Z,6.06
2023-01-15T12:05:36.680Z,6.02
2023-01-15T12:08:17.894Z,5.91
2023-01-15T12:11:25.149Z,5.91
2023-01-15T12:14:26.506Z,5.87
2023-01-15T12:17:01.048Z,5.91
2023-01-15T12:19:57.003Z,5.98
2023-01-15T12:22:34.521Z,6.13
2023-01-15T12:25:24.169Z,5.93
2023-01-15T12:28:07.985Z,5.86
2023-01-15T12:30:56.200Z,5.81
2023-01-15T12:33:52.338Z,5.92
2023-01-15T12:36:29.105Z,5.97
2023-01-15T12:39:02.595Z,5.94
2023-01-15T12:41:57.079Z,6.07
2023-01-15T12:44:48.272Z,6.15
2023-01-15T12:47:18.594Z,6.38
2023-01-15T12:49:51.400Z,6.38
2023-01-15T12:52:24.479Z,6.36
2023-01-15T12:55:22.655Z,6.14
2023-01-15T12:57:56.798Z,6.13
2023-01-15T13:00:43.232Z,6.37
2023-01-15T13:03:32.989Z,6.28
2023-01-15T13:06:03.016Z,6.47
2023-01-15T13:08:38.429Z,6.57
2023-01-15T13:11:07.609Z,6.39
2023-01-15T13:13:38.082Z,6.48
2023-01-15T13:16:47.858Z,6.41
2023-01-15T13:20:01.128Z,6.37
2023-01-15T13:22:31.141Z,6.27
2023-01-15T13:25:18.850Z,6.21
2023-01-15T13:28:15.400Z,6.24
2023-01-15T13:31:00.189Z,6.11
2023-01-15T13:33:36.775Z,6.31
2023-01-15T13:36:06.795Z,6.24
2023-01-15T13:38:41.012Z,6.32
2023-01-15T13:41:09.012Z,6.28
2023-01-15T13:43:35.721Z,6.14
2023-01-15T13:46:09.579Z,6.20
2023-01-15T13:48:43.339Z,6.18
2023-01-15T13:51:27.429Z,6.18
2023-01-15T13:53:55.678Z,6.24
2023-01-15T13:56:33.398Z,6.20
2023-01-15T13:59:02.099Z,6.26
2023-01-15T14:01:35.357Z,6.29
2023-01-15T14:04:18.061Z,6.15
2023-01-15T14:06:50.078Z,6.15
2023-01-15T14:09:22.864Z,6.28
2023-01-15T14:11:55.424Z,6.26
2023-01-15T14:14:49.984Z,6.22
2023-01-15T14:17:56.812Z,6.24
2023-01-15T14:20:39.071Z,6.20
2023-01-15T14:23:18.192Z,6.16
2023-01-15T14:26:03.914Z,6.16
2023-01-15T14:28:58.069Z,6.19
2023-01-15T14:31:38.815Z,6.21
2023-01-15T14:34:19.602Z,6.20
2023-01-15T14:37:00.718Z,6.10
2023-01-15T14:39:27.846Z,6.15
2023-01-15T14:42:24.902Z,6.21
2023-01-15T14:45:01.163Z,6.30
2023-01-15T14:47:34.539Z,6.34
2023-01-15T14:50:31.495Z,6.26
2023-01-15T14:53:16.408Z,6.30
2023-01-15T14:55:50.739Z,6.24
2023-01-15T14:58:26.467Z,6.21
2023-01-15T15:00:55.950Z,6.19
2023-01-15T15:03:33.982Z,6.11
2023-01-15T15:06:01.249Z,6.13
2023-01-15T15:08:32.161Z,6.13
2023-01-15T15:11:00.108Z,6.17
2023-01-15T15:13:37.997Z,6.13
2023-01-15T15:16:11.723Z,6.13
2023-01-15T15:18:53.066Z,6.10
2023-01-15T15:21:28.303Z,6.07
2023-01-15T15:24:21.301Z,6.05
2023-01-15T15:26:48.199Z,6.02
2023-01-15T15:29:17.126Z,5.97
2023-01-15T15:31:49.783Z,5.93
2023-01-15T15:34:22.613Z,5.82
2023-01-15T15:36:49.396Z,5.74
2023-01-15T15:39:21.018Z,5.69
2023-01-15T15:42:09.536Z,5.60
2023-01-15T15:45:11.104Z,5.57
2023-01-15T15:47:58.761Z,5.61
2023-01-15T15:50:34.770Z,5.61
2023-01-15T15:53:06.933Z,5.68
2023-01-15T15:55:40.503Z,5.71
2023-01-15T15:58:09.810Z,5.73
2023-01-15T16:00:43.566Z,5.76
2023-01-15T16:03:21.107Z,5.76
2023-01-15T16:06:05.800Z,5.70
2023-01-15T16:08:34.861Z,5.65
2023-01-15T16:11:06.641Z,5.79
2023-01-15T16:13:36.374Z,5.77
2023-01-15T16:16:05.273Z,5.74
2023-01-15T16:18:41.097Z,5.78
2023-01-15T16:21:09.349Z,5.77
2023-01-15T16:23:36.071Z,5.72
2023-01-15T16:26:12.449Z,5.66
2023-01-15T16:28:43.460Z,5.62
2023-01-15T16:31:11.302Z,5.53
2023-01-15T16:33:39.083Z,5.55
2023-01-15T16:36:08.080Z,5.53
2023-01-15T16:38:39.277Z,5.49
2023-01-15T16:41:06.513Z,5.47
2023-01-15T16:43:51.794Z,5.44
2023-01-15T16:46:20.367Z,5.40
2023-01-15T16:48:48.680Z,5.41
2023-01-15T16:51:32.915Z,5.42
2023-01-15T16:54:05.832Z,5.43
2023-01-15T16:56:38.367Z,5.37
2023-01-15T16:59:31.996Z,5.34
2023-01-15T17:02:30.024Z,5.31
2023-01-15T17:04:56.944Z,5.33
2023-01-15T17:07:29.181Z,5.26
2023-01-15T17:09:59.161Z,5.21
2023-01-15T17:12:32.984Z,5.18
2023-01-15T17:15:18.399Z,5.15
2023-01-15T17:17:46.809Z,5.26
2023-01-15T17:20:15.181Z,5.17
2023-01-15T17:22:46.861Z,5.21
2023-01-15T17:25:33.413Z,5.16
2023-01-15T17:28:01.754Z,5.18
2023-01-15T17:30:33.573Z,5.18
2023-01-15T17:33:06.120Z,5.17
2023-01-15T17:35:35.523Z,5.19
2023-01-15T17:38:02.379Z,5.15
2023-01-15T17:40:29.159Z,5.17
2023-01-15T17:42:55.819Z,5.13
2023-01-15T17:45:30.525Z,5.24
2023-01-15T17:47:57.372Z,5.14
2023-01-15T17:50:24.772Z,5.09
2023-01-15T17:52:52.060Z,5.12
2023-01-15T17:55:40.664Z,5.06
2023-01-15T17:58:29.356Z,5.00
2023-01-15T18:01:15.202Z,5.00
2023-01-15T18:04:11.320Z,4.92
2023-01-15T18:06:40.076Z,4.82
2023-01-15T18:09:08.252Z,4.81
2023-01-15T18:11:35.649Z,4.65
2023-01-15T18:14:02.342Z,4.46
2023-01-15T18:16:29.488Z,4.36
2023-01-15T18:18:56.153Z,4.48
2023-01-15T18:21:22.987Z,4.51
2023-01-15T18:23:49.628Z,4.41
2023-01-15T18:26:16.516Z,4.40
2023-01-15T18:28:45.335Z,4.50
2023-01-15T18:31:12.272Z,4.42
2023-01-15T18:33:41.426Z,4.57
2023-01-15T18:36:13.492Z,4.38
2023-01-15T18:38:46.281Z,4.38
2023-01-15T18:41:40.755Z,4.43
2023-01-15T18:44:36.340Z,4.44
2023-01-15T18:47:10.111Z,4.47
2023-01-15T18:49:37.212Z,4.28
2023-01-15T18:52:22.730Z,4.31
2023-01-15T18:54:49.390Z,4.46
2023-01-15T18:57:16.730Z,4.39
2023-01-15T18:59:47.268Z,4.31
2023-01-15T19:02:14.953Z,4.32
2023-01-15T19:04:42.171Z,4.30
2023-01-15T19:07:09.500Z,4.21
2023-01-15T19:09:36.987Z,4.13
2023-01-15T19:12:05.422Z,4.06
2023-01-15T19:14:50.831Z,4.11
2023-01-15T19:17:39.548Z,4.21
2023-01-15T19:20:07.902Z,4.35
2023-01-15T19:22:53.328Z,4.37
2023-01-15T19:25:23.224Z,4.35
2023-01-15T19:27:50.662Z,4.33
2023-01-15T19:30:17.596Z,4.36
2023-01-15T19:32:44.528Z,4.47
2023-01-15T19:35:11.220Z,4.36
2023-01-15T19:37:39.995Z,4.41
2023-01-15T19:40:17.085Z,4.33
2023-01-15T19:43:02.215Z,4.35
2023-01-15T19:45:47.425Z,4.33
2023-01-15T19:48:34.366Z,4.18
2023-01-15T19:51:01.472Z,4.17
2023-01-15T19:53:28.186Z,4.08
2023-01-15T19:55:56.441Z,4.15
2023-01-15T19:58:23.206Z,4.09
2023-01-15T20:00:50.040Z,4.07
2023-01-15T20:03:17.610Z,4.16
2023-01-15T20:05:45.726Z,3.89
2023-01-15T20:08:18.777Z,3.97
2023-01-15T20:10:47.931Z,3.90
2023-01-15T20:13:42.541Z,3.90
2023-01-15T20:16:12.583Z,3.96
2023-01-15T20:18:40.141Z,3.81
2023-01-15T20:21:08.405Z,3.71
2023-01-15T20:23:36.789Z,3.72
2023-01-15T20:26:10.517Z,3.59
2023-01-15T20:28:37.525Z,3.69
2023-01-15T20:31:04.346Z,3.76
2023-01-15T20:33:31.445Z,3.68
2023-01-15T20:36:02.638Z,3.61
2023-01-15T20:38:29.613Z,3.58
2023-01-15T20:41:16.335Z,3.70
2023-01-15T20:44:01.881Z,3.87
2023-01-15T20:46:28.567Z,3.96
2023-01-15T20:49:14.209Z,4.02
2023-01-15T20:51:41.595Z,4.00
2023-01-15T20:54:08.225Z,4.07
2023-01-15T20:56:35.365Z,4.08
2023-01-15T20:59:02.005Z,4.14
2023-01-15T21:01:29.639Z,4.20
2023-01-15T21:03:56.574Z,4.20
2023-01-15T21:06:23.196Z,4.18
2023-01-15T21:08:50.319Z,4.19
2023-01-15T21:11:17.445Z,4.21
2023-01-15T21:13:46.042Z,4.27
2023-01-15T21:16:14.393Z,4.24
2023-01-15T21:18:46.440Z,4.19
2023-01-15T21:21:15.759Z,4.19
2023-01-15T21:23:46.278Z,4.19
2023-01-15T21:26:15.751Z,4.17
2023-01-15T21:28:44.330Z,4.15
2023-01-15T21:31:13.243Z,4.07
2023-01-15T21:33:40.085Z,4.15
2023-01-15T21:36:11.795Z,4.06
2023-01-15T21:38:38.866Z,4.11
2023-01-15T21:41:15.019Z,4.05
2023-01-15T21:44:02.191Z,4.04
2023-01-15T21:46:29.356Z,4.06
2023-01-15T21:48:58.306Z,3.99
2023-01-15T21:51:26.740Z,3.93
2023-01-15T21:53:53.790Z,3.97
2023-01-15T21:56:20.572Z,3.96
2023-01-15T21:58:47.203Z,4.05
2023-01-15T22:01:18.152Z,3.97
2023-01-15T22:03:46.020Z,3.96
2023-01-15T22:06:12.819Z,4.01
2023-01-15T22:08:39.727Z,4.01
2023-01-15T22:11:08.997Z,4.02
2023-01-15T22:13:36.907Z,4.07
2023-01-15T22:16:07.110Z,4.07
2023-01-15T22:18:34.144Z,4.10
2023-01-15T22:21:06.439Z,4.12
2023-01-15T22:23:34.646Z,4.14
2023-01-15T22:26:01.659Z,4.12
2023-01-15T22:28:28.549Z,4.11
2023-01-15T22:30:55.387Z,4.16
2023-01-15T22:33:22.558Z,4.14
2023-01-15T22:35:59.553Z,4.19
2023-01-15T22:38:26.967Z,4.26
2023-01-15T22:40:53.835Z,4.26
2023-01-15T22:43:20.586Z,4.27
2023-01-15T22:45:47.216Z,4.26
2023-01-15T22:48:13.857Z,4.31
2023-01-15T22:50:40.447Z,4.32
2023-01-15T22:53:07.903Z,4.25
2023-01-15T22:55:34.566Z,4.36
2023-01-15T22:58:01.166Z,4.47
2023-01-15T23:00:27.869Z,4.28
2023-01-15T23:02:54.617Z,4.41
2023-01-15T23:05:22.694Z,4.40
2023-01-15T23:07:50.289Z,4.42
2023-01-15T23:10:17.094Z,4.46
2023-01-15T23:12:43.915Z,4.51
2023-01-15T23:15:13.497Z,4.44
2023-01-15T23:17:40.387Z,4.47
2023-01-15T23:20:09.619Z,4.47
2023-01-15T23:22:36.296Z,4.50
2023-01-15T23:25:03.733Z,4.54
2023-01-15T23:27:30.379Z,4.52
2023-01-15T23:29:57.022Z,4.52
2023-01-15T23:32:23.685Z,4.51
2023-01-15T23:34:50.312Z,4.53
2023-01-15T23:37:17.118Z,4.51
2023-01-15T23:39:44.840Z,4.52
2023-01-15T23:42:30.255Z,4.55
2023-01-15T23:45:15.582Z,4.55
2023-01-15T23:47:42.220Z,4.58
2023-01-15T23:50:09.352Z,4.58
2023-01-15T23:52:36.046Z,4.59
2023-01-15T23:55:02.662Z,4.58
2023-01-15T23:57:29.319Z,4.62
2023-01-15T23:59:55.991Z,4.62
